sensor_id;sensor_type;location;lat;lon;timestamp;pressure;altitude;pressure_sealevel;temperature;humidity
19208;BME280;9737;59.466;18.036;2022-09-27T00:02:15;98306.06;;;10.17;81.80
19208;BME280;9737;59.466;18.036;2022-09-27T00:04:45;98332.34;;;10.29;81.73
19208;BME280;9737;59.466;18.036;2022-09-27T00:07:16;98292.38;;;10.04;81.94
19208;BME280;9737;59.466;18.036;2022-09-27T00:09:47;98343.47;;;10.32;81.87
19208;BME280;9737;59.466;18.036;2022-09-27T00:12:16;98342.66;;;10.32;81.86
19208;BME280;9737;59.466;18.036;2022-09-27T00:14:46;98328.50;;;10.23;82.14
19208;BME280;9737;59.466;18.036;2022-09-27T00:17:15;98283.91;;;10.01;81.98
19208;BME280;9737;59.466;18.036;2022-09-27T00:19:44;98313.41;;;10.23;82.06
19208;BME280;9737;59.466;18.036;2022-09-27T00:22:14;98305.59;;;10.22;81.87
19208;BME280;9737;59.466;18.036;2022-09-27T00:24:46;98293.78;;;10.16;81.67
19208;BME280;9737;59.466;18.036;2022-09-27T00:27:15;98273.97;;;10.03;82.26
19208;BME280;9737;59.466;18.036;2022-09-27T00:29:43;98329.34;;;10.23;82.25
19208;BME280;9737;59.466;18.036;2022-09-27T00:32:12;98372.22;;;10.37;82.03
19208;BME280;9737;59.466;18.036;2022-09-27T00:34:42;98409.97;;;10.48;82.44
19208;BME280;9737;59.466;18.036;2022-09-27T00:37:11;98420.59;;;10.48;81.93
19208;BME280;9737;59.466;18.036;2022-09-27T00:39:41;98430.06;;;10.51;82.48
19208;BME280;9737;59.466;18.036;2022-09-27T00:42:12;98394.13;;;10.31;81.97
19208;BME280;9737;59.466;18.036;2022-09-27T00:45:06;98452.34;;;10.58;82.37
19208;BME280;9737;59.466;18.036;2022-09-27T00:47:45;98489.44;;;10.68;82.46
19208;BME280;9737;59.466;18.036;2022-09-27T00:50:25;98537.84;;;10.79;82.16
19208;BME280;9737;59.466;18.036;2022-09-27T00:53:03;98539.16;;;10.75;82.55
19208;BME280;9737;59.466;18.036;2022-09-27T00:55:39;98560.47;;;10.83;82.26
19208;BME280;9737;59.466;18.036;2022-09-27T00:58:13;98562.13;;;10.84;82.50
19208;BME280;9737;59.466;18.036;2022-09-27T01:00:47;98571.78;;;10.85;82.37
19208;BME280;9737;59.466;18.036;2022-09-27T01:03:24;98570.94;;;10.85;82.74
19208;BME280;9737;59.466;18.036;2022-09-27T01:05:56;98597.56;;;10.93;82.71
19208;BME280;9737;59.466;18.036;2022-09-27T01:08:26;98577.75;;;10.88;82.64
19208;BME280;9737;59.466;18.036;2022-09-27T01:11:09;98576.09;;;10.86;82.41
19208;BME280;9737;59.466;18.036;2022-09-27T01:13:53;98585.38;;;10.82;82.96
19208;BME280;9737;59.466;18.036;2022-09-27T01:16:34;98578.75;;;10.86;82.74
19208;BME280;9737;59.466;18.036;2022-09-27T01:19:11;98567.94;;;10.80;82.83
19208;BME280;9737;59.466;18.036;2022-09-27T01:21:54;98553.81;;;10.79;82.58
19208;BME280;9737;59.466;18.036;2022-09-27T01:24:50;98519.16;;;10.63;82.40
19208;BME280;9737;59.466;18.036;2022-09-27T01:30:42;98550.16;;;10.80;83.14
19208;BME280;9737;59.466;18.036;2022-09-27T01:33:22;98542.50;;;10.77;83.07
19208;BME280;9737;59.466;18.036;2022-09-27T01:36:14;98551.16;;;10.79;82.93
19208;BME280;9737;59.466;18.036;2022-09-27T01:38:53;98586.75;;;10.86;83.18
19208;BME280;9737;59.466;18.036;2022-09-27T01:41:33;98625.00;;;10.94;82.89
19208;BME280;9737;59.466;18.036;2022-09-27T01:44:09;98597.06;;;10.90;83.08
19208;BME280;9737;59.466;18.036;2022-09-27T01:46:47;98578.72;;;10.78;83.07
19208;BME280;9737;59.466;18.036;2022-09-27T01:49:23;98556.94;;;10.75;83.15
19208;BME280;9737;59.466;18.036;2022-09-27T01:51:57;98556.78;;;10.76;82.96
19208;BME280;9737;59.466;18.036;2022-09-27T01:54:34;98529.84;;;10.71;83.42
19208;BME280;9737;59.466;18.036;2022-09-27T01:57:09;98501.88;;;10.67;83.11
19208;BME280;9737;59.466;18.036;2022-09-27T01:59:44;98472.94;;;10.56;83.32
19208;BME280;9737;59.466;18.036;2022-09-27T02:02:22;98461.47;;;10.55;83.03
19208;BME280;9737;59.466;18.036;2022-09-27T02:04:55;98460.66;;;10.55;83.33
19208;BME280;9737;59.466;18.036;2022-09-27T02:07:29;98437.22;;;10.50;83.49
19208;BME280;9737;59.466;18.036;2022-09-27T02:10:05;98404.47;;;10.42;83.17
19208;BME280;9737;59.466;18.036;2022-09-27T02:12:41;98306.66;;;10.03;83.34
19208;BME280;9737;59.466;18.036;2022-09-27T02:15:13;98336.31;;;10.24;82.81
19208;BME280;9737;59.466;18.036;2022-09-27T02:17:52;98307.88;;;10.17;82.89
19208;BME280;9737;59.466;18.036;2022-09-27T02:20:28;98296.44;;;10.16;83.33
19208;BME280;9737;59.466;18.036;2022-09-27T02:23:07;98302.56;;;10.17;82.74
19208;BME280;9737;59.466;18.036;2022-09-27T02:25:42;98297.59;;;10.14;83.32
19208;BME280;9737;59.466;18.036;2022-09-27T02:28:21;98270.47;;;10.02;83.37
19208;BME280;9737;59.466;18.036;2022-09-27T02:30:54;98270.81;;;10.07;82.74
19208;BME280;9737;59.466;18.036;2022-09-27T02:33:28;98265.00;;;10.04;82.99
19208;BME280;9737;59.466;18.036;2022-09-27T02:36:00;98263.00;;;10.06;83.15
19208;BME280;9737;59.466;18.036;2022-09-27T02:38:30;98243.25;;;10.00;83.07
19208;BME280;9737;59.466;18.036;2022-09-27T02:41:00;98240.59;;;10.00;83.09
19208;BME280;9737;59.466;18.036;2022-09-27T02:43:31;98246.91;;;9.99;83.45
19208;BME280;9737;59.466;18.036;2022-09-27T02:46:14;98253.88;;;10.00;83.77
19208;BME280;9737;59.466;18.036;2022-09-27T02:49:01;98234.59;;;9.90;83.37
19208;BME280;9737;59.466;18.036;2022-09-27T02:51:40;98286.44;;;10.10;83.36
19208;BME280;9737;59.466;18.036;2022-09-27T02:54:20;98290.72;;;10.03;83.81
19208;BME280;9737;59.466;18.036;2022-09-27T02:57:02;98326.03;;;10.21;83.49
19208;BME280;9737;59.466;18.036;2022-09-27T02:59:41;98339.13;;;10.23;83.52
19208;BME280;9737;59.466;18.036;2022-09-27T03:02:14;98338.75;;;10.18;83.56
19208;BME280;9737;59.466;18.036;2022-09-27T03:04:52;98356.25;;;10.29;83.17
19208;BME280;9737;59.466;18.036;2022-09-27T03:07:23;98354.75;;;10.26;83.74
19208;BME280;9737;59.466;18.036;2022-09-27T03:09:53;98329.63;;;10.12;83.32
19208;BME280;9737;59.466;18.036;2022-09-27T03:12:21;98323.66;;;10.18;84.07
19208;BME280;9737;59.466;18.036;2022-09-27T03:14:54;98294.22;;;10.12;83.42
19208;BME280;9737;59.466;18.036;2022-09-27T03:17:24;98261.50;;;10.03;83.36
19208;BME280;9737;59.466;18.036;2022-09-27T03:19:54;98236.59;;;9.96;83.16
19208;BME280;9737;59.466;18.036;2022-09-27T03:22:23;98227.97;;;9.94;83.04
19208;BME280;9737;59.466;18.036;2022-09-27T03:24:52;98208.06;;;9.90;83.49
19208;BME280;9737;59.466;18.036;2022-09-27T03:27:20;98212.69;;;9.88;84.05
19208;BME280;9737;59.466;18.036;2022-09-27T03:29:48;98254.53;;;10.02;83.57
19208;BME280;9737;59.466;18.036;2022-09-27T03:32:16;98288.41;;;10.08;83.56
19208;BME280;9737;59.466;18.036;2022-09-27T03:34:46;98282.09;;;10.09;83.89
19208;BME280;9737;59.466;18.036;2022-09-27T03:37:16;98301.38;;;10.11;84.01
19208;BME280;9737;59.466;18.036;2022-09-27T03:39:46;98305.72;;;10.12;83.02
19208;BME280;9737;59.466;18.036;2022-09-27T03:42:15;98287.72;;;9.98;83.87
19208;BME280;9737;59.466;18.036;2022-09-27T03:44:45;98301.53;;;10.10;84.17
19208;BME280;9737;59.466;18.036;2022-09-27T03:47:16;98314.19;;;10.16;83.69
19208;BME280;9737;59.466;18.036;2022-09-27T03:49:45;98329.97;;;10.17;84.04
19208;BME280;9737;59.466;18.036;2022-09-27T03:52:16;98323.81;;;10.17;83.96
19208;BME280;9737;59.466;18.036;2022-09-27T03:54:46;98291.06;;;10.00;83.60
19208;BME280;9737;59.466;18.036;2022-09-27T03:57:15;98303.06;;;10.12;84.01
19208;BME280;9737;59.466;18.036;2022-09-27T03:59:44;98294.56;;;10.09;84.20
19208;BME280;9737;59.466;18.036;2022-09-27T04:02:15;98270.97;;;9.98;84.08
19208;BME280;9737;59.466;18.036;2022-09-27T04:04:44;98237.91;;;9.84;83.47
19208;BME280;9737;59.466;18.036;2022-09-27T04:07:12;98227.91;;;9.78;84.02
19208;BME280;9737;59.466;18.036;2022-09-27T04:09:43;98272.81;;;10.05;84.32
19208;BME280;9737;59.466;18.036;2022-09-27T04:12:15;98327.47;;;10.16;83.81
19208;BME280;9737;59.466;18.036;2022-09-27T04:14:45;98414.56;;;10.38;84.40
19208;BME280;9737;59.466;18.036;2022-09-27T04:17:15;98447.34;;;10.47;84.16
19208;BME280;9737;59.466;18.036;2022-09-27T04:19:47;98488.06;;;10.55;84.11
19208;BME280;9737;59.466;18.036;2022-09-27T04:22:15;98547.63;;;10.71;83.73
19208;BME280;9737;59.466;18.036;2022-09-27T04:25:09;98560.09;;;10.70;84.44
19208;BME280;9737;59.466;18.036;2022-09-27T04:27:37;98557.94;;;10.74;84.01
19208;BME280;9737;59.466;18.036;2022-09-27T04:30:24;98545.81;;;10.71;84.54
19208;BME280;9737;59.466;18.036;2022-09-27T04:33:12;98520.81;;;10.64;84.23
19208;BME280;9737;59.466;18.036;2022-09-27T04:36:00;98507.69;;;10.63;84.04
19208;BME280;9737;59.466;18.036;2022-09-27T04:39:04;98478.59;;;10.53;84.48
19208;BME280;9737;59.466;18.036;2022-09-27T04:41:34;98453.50;;;10.47;84.54
19208;BME280;9737;59.466;18.036;2022-09-27T04:44:04;98420.03;;;10.37;83.78
19208;BME280;9737;59.466;18.036;2022-09-27T04:46:32;98385.47;;;10.29;84.84
19208;BME280;9737;59.466;18.036;2022-09-27T04:49:02;98348.41;;;10.19;84.08
19208;BME280;9737;59.466;18.036;2022-09-27T04:51:30;98312.00;;;10.11;84.74
19208;BME280;9737;59.466;18.036;2022-09-27T04:53:58;98277.44;;;10.03;83.72
19208;BME280;9737;59.466;18.036;2022-09-27T04:56:28;98242.56;;;9.90;84.29
19208;BME280;9737;59.466;18.036;2022-09-27T04:59:00;98229.97;;;9.92;84.17
19208;BME280;9737;59.466;18.036;2022-09-27T05:01:37;98192.75;;;9.76;84.16
19208;BME280;9737;59.466;18.036;2022-09-27T05:04:05;98210.22;;;9.86;83.77
19208;BME280;9737;59.466;18.036;2022-09-27T05:06:35;98192.09;;;9.82;84.70
19208;BME280;9737;59.466;18.036;2022-09-27T05:09:04;98187.28;;;9.77;84.04
19208;BME280;9737;59.466;18.036;2022-09-27T05:11:33;98198.22;;;9.82;84.21
19208;BME280;9737;59.466;18.036;2022-09-27T05:14:08;98189.75;;;9.71;84.83
19208;BME280;9737;59.466;18.036;2022-09-27T05:16:36;98214.38;;;9.89;84.08
19208;BME280;9737;59.466;18.036;2022-09-27T05:19:06;98224.31;;;9.87;84.44
19208;BME280;9737;59.466;18.036;2022-09-27T05:21:36;98240.59;;;9.92;84.25
19208;BME280;9737;59.466;18.036;2022-09-27T05:24:05;98249.88;;;9.96;84.49
19208;BME280;9737;59.466;18.036;2022-09-27T05:26:33;98287.06;;;10.04;84.34
19208;BME280;9737;59.466;18.036;2022-09-27T05:29:02;98311.31;;;10.09;84.27
19208;BME280;9737;59.466;18.036;2022-09-27T05:31:32;98318.63;;;10.07;84.15
19208;BME280;9737;59.466;18.036;2022-09-27T05:34:01;98354.69;;;10.18;83.98
19208;BME280;9737;59.466;18.036;2022-09-27T05:36:35;98358.13;;;10.10;84.31
19208;BME280;9737;59.466;18.036;2022-09-27T05:39:03;98384.75;;;10.18;84.36
19208;BME280;9737;59.466;18.036;2022-09-27T05:41:32;98439.03;;;10.42;84.87
19208;BME280;9737;59.466;18.036;2022-09-27T05:44:01;98482.25;;;10.52;84.17
19208;BME280;9737;59.466;18.036;2022-09-27T05:46:29;98509.84;;;10.59;84.90
19208;BME280;9737;59.466;18.036;2022-09-27T05:49:00;98550.06;;;10.64;84.45
19208;BME280;9737;59.466;18.036;2022-09-27T05:51:28;98581.72;;;10.75;84.58
19208;BME280;9737;59.466;18.036;2022-09-27T05:53:56;98622.31;;;10.85;84.18
19208;BME280;9737;59.466;18.036;2022-09-27T05:56:24;98651.91;;;10.91;84.90
19208;BME280;9737;59.466;18.036;2022-09-27T05:58:52;98679.19;;;10.93;84.75
19208;BME280;9737;59.466;18.036;2022-09-27T06:01:20;98717.00;;;11.04;85.08
19208;BME280;9737;59.466;18.036;2022-09-27T06:03:48;98766.97;;;11.18;84.83
19208;BME280;9737;59.466;18.036;2022-09-27T06:06:20;98789.44;;;11.24;84.41
19208;BME280;9737;59.466;18.036;2022-09-27T06:08:49;98804.06;;;11.20;84.75
19208;BME280;9737;59.466;18.036;2022-09-27T06:11:17;98867.41;;;11.42;84.97
19208;BME280;9737;59.466;18.036;2022-09-27T06:14:03;98891.75;;;11.47;84.96
19208;BME280;9737;59.466;18.036;2022-09-27T06:16:32;98910.06;;;11.51;85.03
19208;BME280;9737;59.466;18.036;2022-09-27T06:19:00;98945.44;;;11.61;84.79
19208;BME280;9737;59.466;18.036;2022-09-27T06:21:30;98976.59;;;11.68;84.97
19208;BME280;9737;59.466;18.036;2022-09-27T06:23:58;99023.50;;;11.79;84.82
19208;BME280;9737;59.466;18.036;2022-09-27T06:26:28;99026.75;;;11.73;84.78
19208;BME280;9737;59.466;18.036;2022-09-27T06:28:58;99081.56;;;11.93;84.93
19208;BME280;9737;59.466;18.036;2022-09-27T06:31:26;99126.91;;;12.01;84.90
19208;BME280;9737;59.466;18.036;2022-09-27T06:33:53;99166.94;;;12.09;84.81
19208;BME280;9737;59.466;18.036;2022-09-27T06:36:21;99207.41;;;12.23;84.87
19208;BME280;9737;59.466;18.036;2022-09-27T06:38:51;99215.38;;;12.23;84.83
19208;BME280;9737;59.466;18.036;2022-09-27T06:41:21;99260.47;;;12.34;84.93
19208;BME280;9737;59.466;18.036;2022-09-27T06:43:49;99278.13;;;12.35;84.82
19208;BME280;9737;59.466;18.036;2022-09-27T06:46:17;99272.44;;;12.30;84.84
19208;BME280;9737;59.466;18.036;2022-09-27T06:48:45;99304.88;;;12.43;84.88
19208;BME280;9737;59.466;18.036;2022-09-27T06:51:18;99331.63;;;12.51;85.05
19208;BME280;9737;59.466;18.036;2022-09-27T06:53:46;99350.84;;;12.55;84.88
19208;BME280;9737;59.466;18.036;2022-09-27T06:56:15;99383.91;;;12.62;84.97
19208;BME280;9737;59.466;18.036;2022-09-27T06:58:43;99422.16;;;12.70;84.94
19208;BME280;9737;59.466;18.036;2022-09-27T07:01:28;99469.31;;;12.80;85.06
19208;BME280;9737;59.466;18.036;2022-09-27T07:03:57;99472.97;;;12.79;84.72
19208;BME280;9737;59.466;18.036;2022-09-27T07:06:25;99523.16;;;12.93;84.86
19208;BME280;9737;59.466;18.036;2022-09-27T07:08:53;99560.47;;;13.02;84.90
19208;BME280;9737;59.466;18.036;2022-09-27T07:11:22;99618.84;;;13.15;85.05
19208;BME280;9737;59.466;18.036;2022-09-27T07:13:51;99697.50;;;13.30;84.76
19208;BME280;9737;59.466;18.036;2022-09-27T07:16:19;99810.41;;;13.60;85.14
19208;BME280;9737;59.466;18.036;2022-09-27T07:18:48;99872.94;;;13.67;84.65
19208;BME280;9737;59.466;18.036;2022-09-27T07:21:16;99950.94;;;13.90;85.16
19208;BME280;9737;59.466;18.036;2022-09-27T07:23:44;100005.06;;;14.02;85.25
19208;BME280;9737;59.466;18.036;2022-09-27T07:26:12;100130.00;;;14.29;85.00
19208;BME280;9737;59.466;18.036;2022-09-27T07:28:42;100290.78;;;14.74;84.63
19208;BME280;9737;59.466;18.036;2022-09-27T07:31:11;100343.34;;;14.84;84.71
19208;BME280;9737;59.466;18.036;2022-09-27T07:33:40;100434.25;;;15.05;84.56
19208;BME280;9737;59.466;18.036;2022-09-27T07:36:10;100477.53;;;15.10;84.83
19208;BME280;9737;59.466;18.036;2022-09-27T07:38:38;100582.16;;;15.38;84.86
19208;BME280;9737;59.466;18.036;2022-09-27T07:41:08;100532.50;;;15.24;84.78
19208;BME280;9737;59.466;18.036;2022-09-27T07:43:37;100502.47;;;15.21;84.82
19208;BME280;9737;59.466;18.036;2022-09-27T07:46:06;100429.00;;;14.94;84.96
19208;BME280;9737;59.466;18.036;2022-09-27T07:48:34;100407.31;;;14.97;84.87
19208;BME280;9737;59.466;18.036;2022-09-27T07:51:03;100405.75;;;14.95;84.91
19208;BME280;9737;59.466;18.036;2022-09-27T07:53:33;100436.34;;;15.02;84.82
19208;BME280;9737;59.466;18.036;2022-09-27T07:56:03;100456.38;;;15.07;84.60
19208;BME280;9737;59.466;18.036;2022-09-27T07:58:31;100432.66;;;15.03;84.71
19208;BME280;9737;59.466;18.036;2022-09-27T08:01:00;100412.81;;;14.96;84.66
19208;BME280;9737;59.466;18.036;2022-09-27T08:03:30;100301.06;;;14.69;84.31
19208;BME280;9737;59.466;18.036;2022-09-27T08:06:01;100276.44;;;14.65;84.61
19208;BME280;9737;59.466;18.036;2022-09-27T08:08:29;100250.94;;;14.61;84.65
19208;BME280;9737;59.466;18.036;2022-09-27T08:10:57;100200.56;;;14.47;84.58
19208;BME280;9737;59.466;18.036;2022-09-27T08:13:25;100180.78;;;14.38;84.71
19208;BME280;9737;59.466;18.036;2022-09-27T08:15:54;100196.59;;;14.51;84.33
19208;BME280;9737;59.466;18.036;2022-09-27T08:18:27;100205.91;;;14.47;84.05
19208;BME280;9737;59.466;18.036;2022-09-27T08:20:57;100191.41;;;14.49;84.44
19208;BME280;9737;59.466;18.036;2022-09-27T08:23:26;100142.66;;;14.36;84.57
19208;BME280;9737;59.466;18.036;2022-09-27T08:25:54;100127.31;;;14.29;84.22
19208;BME280;9737;59.466;18.036;2022-09-27T08:28:24;100161.66;;;14.43;83.98
19208;BME280;9737;59.466;18.036;2022-09-27T08:30:52;100141.50;;;14.39;84.45
19208;BME280;9737;59.466;18.036;2022-09-27T08:33:20;100125.91;;;14.34;84.33
19208;BME280;9737;59.466;18.036;2022-09-27T08:35:59;100095.81;;;14.22;83.94
19208;BME280;9737;59.466;18.036;2022-09-27T08:38:27;100134.63;;;14.36;83.95
19208;BME280;9737;59.466;18.036;2022-09-27T08:40:56;100125.06;;;14.34;84.11
19208;BME280;9737;59.466;18.036;2022-09-27T08:43:33;100082.28;;;14.24;84.12
19208;BME280;9737;59.466;18.036;2022-09-27T08:46:18;100002.09;;;14.05;84.22
19208;BME280;9737;59.466;18.036;2022-09-27T08:48:55;100028.25;;;14.11;83.68
19208;BME280;9737;59.466;18.036;2022-09-27T08:51:29;99994.38;;;14.02;83.57
19208;BME280;9737;59.466;18.036;2022-09-27T08:54:02;100029.94;;;14.12;83.72
19208;BME280;9737;59.466;18.036;2022-09-27T08:56:33;100059.78;;;14.17;84.06
19208;BME280;9737;59.466;18.036;2022-09-27T08:59:09;100089.31;;;14.25;83.62
19208;BME280;9737;59.466;18.036;2022-09-27T09:01:39;100110.44;;;14.28;83.52
19208;BME280;9737;59.466;18.036;2022-09-27T09:04:08;100124.91;;;14.35;83.67
19208;BME280;9737;59.466;18.036;2022-09-27T09:06:46;100181.94;;;14.45;83.57
19208;BME280;9737;59.466;18.036;2022-09-27T09:09:26;100203.94;;;14.49;83.51
19208;BME280;9737;59.466;18.036;2022-09-27T09:12:02;100231.50;;;14.59;83.63
19208;BME280;9737;59.466;18.036;2022-09-27T09:15:02;100253.19;;;14.66;83.47
19208;BME280;9737;59.466;18.036;2022-09-27T09:17:44;100239.53;;;14.59;83.56
19208;BME280;9737;59.466;18.036;2022-09-27T09:20:31;100228.41;;;14.54;83.47
19208;BME280;9737;59.466;18.036;2022-09-27T09:23:21;100228.13;;;14.57;83.33
19208;BME280;9737;59.466;18.036;2022-09-27T09:26:00;100217.72;;;14.54;83.33
19208;BME280;9737;59.466;18.036;2022-09-27T09:28:45;100229.66;;;14.60;83.14
19208;BME280;9737;59.466;18.036;2022-09-27T09:31:29;100222.63;;;14.59;83.49
19208;BME280;9737;59.466;18.036;2022-09-27T09:34:06;100191.25;;;14.51;83.52
19208;BME280;9737;59.466;18.036;2022-09-27T09:36:41;100193.06;;;14.50;83.47
19208;BME280;9737;59.466;18.036;2022-09-27T09:39:16;100159.69;;;14.45;83.36
19208;BME280;9737;59.466;18.036;2022-09-27T09:42:03;100175.63;;;14.46;83.32
19208;BME280;9737;59.466;18.036;2022-09-27T09:44:40;100225.31;;;14.59;83.09
19208;BME280;9737;59.466;18.036;2022-09-27T09:47:16;100289.09;;;14.73;83.32
19208;BME280;9737;59.466;18.036;2022-09-27T09:49:51;100336.16;;;14.85;83.57
19208;BME280;9737;59.466;18.036;2022-09-27T09:52:24;100432.28;;;15.07;83.06
19208;BME280;9737;59.466;18.036;2022-09-27T09:55:01;100469.34;;;15.12;83.18
19208;BME280;9737;59.466;18.036;2022-09-27T09:57:35;100440.31;;;15.07;82.96
19208;BME280;9737;59.466;18.036;2022-09-27T10:00:11;100452.44;;;15.11;82.98
19208;BME280;9737;59.466;18.036;2022-09-27T10:02:42;100402.50;;;15.01;83.26
19208;BME280;9737;59.466;18.036;2022-09-27T10:05:14;100394.63;;;14.99;83.03
19208;BME280;9737;59.466;18.036;2022-09-27T10:07:43;100325.03;;;14.80;83.07
19208;BME280;9737;59.466;18.036;2022-09-27T10:10:14;100255.16;;;14.64;83.00
19208;BME280;9737;59.466;18.036;2022-09-27T10:12:47;100211.22;;;14.56;82.77
19208;BME280;9737;59.466;18.036;2022-09-27T10:15:18;100139.53;;;14.41;82.79
19208;BME280;9737;59.466;18.036;2022-09-27T10:17:51;100037.41;;;14.18;82.90
19208;BME280;9737;59.466;18.036;2022-09-27T10:20:26;99949.50;;;13.95;83.01
19208;BME280;9737;59.466;18.036;2022-09-27T10:22:58;99864.03;;;13.76;82.53
19208;BME280;9737;59.466;18.036;2022-09-27T10:25:44;99787.34;;;13.59;82.88
19208;BME280;9737;59.466;18.036;2022-09-27T10:28:29;99751.66;;;13.50;82.56
19208;BME280;9737;59.466;18.036;2022-09-27T10:31:02;99709.13;;;13.39;82.73
19208;BME280;9737;59.466;18.036;2022-09-27T10:36:33;99693.84;;;13.31;82.37
19208;BME280;9737;59.466;18.036;2022-09-27T10:39:03;99789.72;;;13.62;82.58
19208;BME280;9737;59.466;18.036;2022-09-27T10:41:35;99867.72;;;13.75;82.65
19208;BME280;9737;59.466;18.036;2022-09-27T10:44:24;99995.06;;;14.04;82.45
19208;BME280;9737;59.466;18.036;2022-09-27T10:47:27;100159.41;;;14.38;82.34
19208;BME280;9737;59.466;18.036;2022-09-27T10:50:16;100295.31;;;14.64;82.44
19208;BME280;9737;59.466;18.036;2022-09-27T10:53:11;100460.75;;;15.08;82.46
19208;BME280;9737;59.466;18.036;2022-09-27T10:55:41;100568.63;;;15.39;82.30
19208;BME280;9737;59.466;18.036;2022-09-27T10:58:18;100679.00;;;15.64;82.42
19208;BME280;9737;59.466;18.036;2022-09-27T11:00:54;100634.66;;;15.50;82.35
19208;BME280;9737;59.466;18.036;2022-09-27T11:03:23;100638.59;;;15.56;82.54
19208;BME280;9737;59.466;18.036;2022-09-27T11:05:55;100600.09;;;15.47;82.59
19208;BME280;9737;59.466;18.036;2022-09-27T11:08:29;100615.88;;;15.50;82.55
19208;BME280;9737;59.466;18.036;2022-09-27T11:11:16;100663.91;;;15.63;82.48
19208;BME280;9737;59.466;18.036;2022-09-27T11:14:01;100653.56;;;15.58;82.36
19208;BME280;9737;59.466;18.036;2022-09-27T11:16:41;100628.28;;;15.51;82.21
19208;BME280;9737;59.466;18.036;2022-09-27T11:19:40;100583.28;;;15.45;82.39
19208;BME280;9737;59.466;18.036;2022-09-27T11:25:17;100656.09;;;15.50;82.14
19208;BME280;9737;59.466;18.036;2022-09-27T11:27:58;100647.22;;;15.59;82.56
19208;BME280;9737;59.466;18.036;2022-09-27T11:30:41;100595.44;;;15.39;82.37
19208;BME280;9737;59.466;18.036;2022-09-27T11:33:32;100591.34;;;15.45;82.24
19208;BME280;9737;59.466;18.036;2022-09-27T11:36:11;100547.72;;;15.24;82.12
19208;BME280;9737;59.466;18.036;2022-09-27T11:38:53;100467.78;;;15.19;82.34
19208;BME280;9737;59.466;18.036;2022-09-27T11:41:52;100439.31;;;15.08;82.27
19208;BME280;9737;59.466;18.036;2022-09-27T11:44:43;100462.16;;;15.12;82.14
19208;BME280;9737;59.466;18.036;2022-09-27T11:47:37;100511.91;;;15.15;82.26
19208;BME280;9737;59.466;18.036;2022-09-27T11:50:33;100553.22;;;15.32;82.25
19208;BME280;9737;59.466;18.036;2022-09-27T11:53:28;100634.66;;;15.50;82.03
19208;BME280;9737;59.466;18.036;2022-09-27T11:56:06;100620.25;;;15.51;82.03
19208;BME280;9737;59.466;18.036;2022-09-27T11:58:44;100715.41;;;15.76;82.06
19208;BME280;9737;59.466;18.036;2022-09-27T12:01:24;100754.81;;;15.85;82.07
19208;BME280;9737;59.466;18.036;2022-09-27T12:04:34;100949.34;;;16.29;82.08
19208;BME280;9737;59.466;18.036;2022-09-27T12:07:15;101010.69;;;16.43;82.11
19208;BME280;9737;59.466;18.036;2022-09-27T12:09:51;100971.25;;;16.34;82.06
19208;BME280;9737;59.466;18.036;2022-09-27T12:12:22;100923.06;;;16.23;82.04
19208;BME280;9737;59.466;18.036;2022-09-27T12:14:53;100983.84;;;16.34;82.08
19208;BME280;9737;59.466;18.036;2022-09-27T12:17:24;101147.66;;;16.74;82.04
19208;BME280;9737;59.466;18.036;2022-09-27T12:19:57;101423.53;;;17.36;81.96
19208;BME280;9737;59.466;18.036;2022-09-27T12:22:29;101514.47;;;17.52;81.97
19208;BME280;9737;59.466;18.036;2022-09-27T12:25:19;101461.22;;;17.46;82.10
19208;BME280;9737;59.466;18.036;2022-09-27T12:27:50;101453.81;;;17.38;81.98
19208;BME280;9737;59.466;18.036;2022-09-27T12:30:21;101581.06;;;17.71;81.78
19208;BME280;9737;59.466;18.036;2022-09-27T12:32:54;101595.94;;;17.75;82.05
19208;BME280;9737;59.466;18.036;2022-09-27T12:35:27;101631.38;;;17.80;81.89
19208;BME280;9737;59.466;18.036;2022-09-27T12:37:59;101622.00;;;17.74;82.11
19208;BME280;9737;59.466;18.036;2022-09-27T12:40:32;101760.19;;;18.05;81.94
19208;BME280;9737;59.466;18.036;2022-09-27T12:43:05;101814.22;;;18.24;81.98
19208;BME280;9737;59.466;18.036;2022-09-27T12:45:45;101812.50;;;18.23;81.73
19208;BME280;9737;59.466;18.036;2022-09-27T12:48:23;101712.53;;;17.96;81.72
19208;BME280;9737;59.466;18.036;2022-09-27T12:51:00;101763.09;;;18.13;81.59
19208;BME280;9737;59.466;18.036;2022-09-27T12:53:40;101661.16;;;17.88;81.69
19208;BME280;9737;59.466;18.036;2022-09-27T12:56:28;101553.03;;;17.62;81.62
19208;BME280;9737;59.466;18.036;2022-09-27T12:59:15;101414.13;;;17.30;81.53
19208;BME280;9737;59.466;18.036;2022-09-27T13:05:06;101149.22;;;16.77;81.58
19208;BME280;9737;59.466;18.036;2022-09-27T13:07:49;101115.97;;;16.68;81.24
19208;BME280;9737;59.466;18.036;2022-09-27T13:10:34;101042.41;;;16.50;81.32
19208;BME280;9737;59.466;18.036;2022-09-27T13:13:10;100988.78;;;16.38;81.18
19208;BME280;9737;59.466;18.036;2022-09-27T13:15:42;101001.66;;;16.45;81.06
19208;BME280;9737;59.466;18.036;2022-09-27T13:18:30;100970.84;;;16.39;81.00
19208;BME280;9737;59.466;18.036;2022-09-27T13:21:01;100873.88;;;16.13;81.04
19208;BME280;9737;59.466;18.036;2022-09-27T13:23:58;100860.59;;;16.11;81.07
19208;BME280;9737;59.466;18.036;2022-09-27T13:26:47;100822.63;;;16.06;80.87
19208;BME280;9737;59.466;18.036;2022-09-27T13:29:27;100817.53;;;16.03;80.87
19208;BME280;9737;59.466;18.036;2022-09-27T13:32:16;100806.94;;;16.02;80.88
19208;BME280;9737;59.466;18.036;2022-09-27T13:34:47;100798.19;;;16.00;80.86
19208;BME280;9737;59.466;18.036;2022-09-27T13:40:27;100836.59;;;16.10;80.62
19208;BME280;9737;59.466;18.036;2022-09-27T13:43:09;100852.97;;;16.07;80.69
19208;BME280;9737;59.466;18.036;2022-09-27T13:45:50;100903.31;;;16.24;80.67
19208;BME280;9737;59.466;18.036;2022-09-27T13:48:25;100952.75;;;16.31;80.57
19208;BME280;9737;59.466;18.036;2022-09-27T13:50:57;101022.34;;;16.54;80.66
19208;BME280;9737;59.466;18.036;2022-09-27T13:53:29;101126.16;;;16.74;80.29